Dry Valley, Nevada
Current Conditions -  °F | °C
As of 2:53 PM on Saturday 20 Dec 2014 (Local Time) from KELY Reporting Station
Overcast Overcast  
Wind Chill: 36°   Ceiling: 3600
Heat Index: 39°   Visibility: 10mi
Dew Point: 31°   Wind: 5mph
Humidity: 73%   Direction: 50°NE
Pressure: 30.08"   Gusts: NA
Location:  38.2635°N, 114.484°W
Report Text: KELY 202253Z AUTO 05004KT 10SM FEW028 BKN036 OVC044 04/M01 A3008 RMK AO2 SLP190 T00391006
Loading
Personal Weather Stations






























Interactive Weather Map New forecast layout! Learn more

10-Day Weather Forecast

Advertisements
Track Severe Weather on mobile